DW6839 Weather Reports


Display with metric or nautical units.
time (UTC)temp
F
wind
direction
speed
MPH
gust
MPH
rain 1hr
in
rain 24hr
in
rain mn
in
humidity
%
barometer
mb
20211207090016 37 278 2.0 11.0 0.00 0.22 0.00 63 1011.4
20211207085016 37 263 2.0 8.0 0.00 0.22 0.00 64 1011.2
20211207084016 37 249 0.0 11.0 0.00 0.22 0.00 64 1011.0
20211207083016 38 261 1.0 8.0 0.00 0.22 0.00 62 1010.8
20211207082016 38 251 1.0 11.0 0.00 0.22 0.00 61 1010.7
20211207081016 38 280 3.0 9.0 0.00 0.22 0.00 60 1010.3
20211207080016 39 275 3.0 9.0 0.00 0.22 0.00 60 1010.2
20211207075016 39 271 6.0 12.0 0.00 0.22 0.00 58 1010.0
20211207074016 39 274 5.0 13.0 0.00 0.22 0.00 58 1009.7
20211207073016 39 277 7.0 13.0 0.00 0.22 0.00 58 1009.5
20211207072016 39 277 7.0 20.0 0.00 0.22 0.00 57 1009.2
20211207071016 39 278 9.0 17.0 0.00 0.22 0.00 59 1009.1
20211207070015 40 285 7.0 17.0 0.00 0.22 0.00 59 1008.6
20211207065016 40 287 8.0 17.0 0.00 0.22 0.00 59 1008.1
20211207064016 40 289 9.0 22.0 0.00 0.22 0.00 59 1007.8
20211207063016 40 283 8.0 18.0 0.00 0.22 0.00 60 1007.6
20211207062016 41 291 5.0 17.0 0.00 0.22 0.00 59 1007.5
20211207061016 42 280 8.0 18.0 0.00 0.22 0.00 59 1007.3
20211207060016 42 281 6.0 19.0 0.00 0.22 0.00 61 1006.9
20211207055015 42 288 8.0 18.0 0.00 0.22 0.00 62 1006.4
20211207054016 43 284 10.0 26.0 0.00 0.22 0.00 63 1006.2
20211207053015 43 294 8.0 15.0 0.00 0.22 0.00 64 1006.2
20211207052016 43 285 7.0 22.0 0.00 0.22 0.00 66 1006.2
20211207051016 43 289 6.0 17.0 0.00 0.22 0.00 68 1006.0
20211207050016 43 282 3.0 13.0 0.00 0.22 0.22 69 1005.6
20211207045016 44 277 5.0 16.0 0.00 0.22 0.22 71 1005.9
20211207044016 44 288 9.0 20.0 0.00 0.22 0.22 74 1005.0
20211207043016 44 279 5.0 15.0 0.00 0.22 0.22 79 1005.0
20211207042016 44 281 4.0 11.0 0.00 0.22 0.22 81 1004.7
20211207041016 44 284 5.0 14.0 0.00 0.22 0.22 81 1004.4
20211207040017 44 287 3.0 12.0 0.00 0.22 0.22 80 1004.1
20211207035016 45 285 7.0 17.0 0.01 0.22 0.22 78 1003.8
20211207034017 45 279 11.0 22.0 0.01 0.22 0.22 77 1003.6
20211207033016 46 292 8.0 20.0 0.01 0.22 0.22 81 1003.1
20211207032016 47 294 7.0 17.0 0.07 0.22 0.22 81 1002.9
20211207031016 48 295 10.0 23.0 0.08 0.22 0.22 83 1002.9
20211207030017 50 299 10.0 20.0 0.09 0.22 0.22 88 1002.3
20211207025016 52 289 10.0 23.0 0.08 0.21 0.21 89 1001.4
20211207024016 53 288 7.0 17.0 0.09 0.21 0.21 89 1000.6
20211207023016 56 281 7.0 17.0 0.12 0.21 0.21 91 999.9
20211207022016 57 237 4.0 20.0 0.06 0.15 0.15 93 998.3
20211207021016 57 239 3.0 11.0 0.05 0.14 0.14 93 998.5
20211207020017 57 225 2.0 14.0 0.04 0.13 0.13 93 998.5
20211207015017 57 228 4.0 19.0 0.05 0.13 0.13 92 998.7
20211207014016 58 235 2.0 8.0 0.04 0.12 0.12 91 998.4
20211207013017 58 214 2.0 14.0 0.01 0.09 0.09 89 998.7
20211207012016 58 223 2.0 8.0 0.01 0.09 0.09 90 998.7
20211207011016 58 224 1.0 9.0 0.01 0.09 0.09 90 998.8
20211207010016 58 215 1.0 13.0 0.01 0.09 0.09 89 999.1
20211207005016 58 219 2.0 14.0 0.00 0.08 0.08 88 999.3
20211207004016 58 231 1.0 13.0 0.00 0.08 0.08 87 999.6
20211207003016 58 229 2.0 13.0 0.00 0.08 0.08 87 999.8
20211207002016 59 213 3.0 10.0 0.00 0.08 0.08 86 999.9
20211207001016 59 222 1.0 17.0 0.00 0.08 0.08 85 1000.1
20211207000016 59 219 4.0 13.0 0.00 0.08 0.08 84 1000.3
20211206235016 59 214 3.0 16.0 0.00 0.08 0.08 83 1000.6
20211206234016 59 222 5.0 21.0 0.00 0.08 0.08 83 1000.6
20211206233017 59 220 4.0 21.0 0.00 0.08 0.08 82 1000.8
20211206232016 59 218 5.0 15.0 0.00 0.08 0.08 82 1000.8
20211206231016 58 214 4.0 13.0 0.00 0.08 0.08 83 1000.6
20211206230016 58 193 2.0 11.0 0.00 0.08 0.08 83 1000.8
20211206225016 58 158 1.0 13.0 0.00 0.08 0.08 83 1001.0
20211206224016 58 204 2.0 12.0 0.00 0.08 0.08 83 1001.4
20211206223016 58 191 3.0 10.0 0.00 0.08 0.08 83 1001.4
20211206222016 58 166 3.0 13.0 0.00 0.08 0.08 83 1001.4
20211206221016 58 212 3.0 17.0 0.00 0.08 0.08 84 1001.5
20211206220016 58 207 2.0 13.0 0.00 0.08 0.08 84 1001.9
20211206215016 58 215 3.0 12.0 0.00 0.08 0.08 83 1002.0
20211206214016 58 196 2.0 15.0 0.00 0.08 0.08 84 1002.3
20211206213017 58 223 3.0 15.0 0.00 0.08 0.08 84 1002.5
20211206212016 58 208 4.0 14.0 0.00 0.08 0.08 84 1002.6
20211206211016 59 199 3.0 13.0 0.00 0.08 0.08 84 1002.8
20211206210016 59 207 2.0 15.0 0.00 0.08 0.08 84 1003.0
20211206205016 59 200 5.0 23.0 0.00 0.08 0.08 84 1003.2
20211206204016 58 218 3.0 17.0 0.00 0.08 0.08 85 1003.5
20211206203016 58 230 4.0 17.0 0.00 0.08 0.08 87 1003.7
20211206202016 57 188 4.0 19.0 0.00 0.08 0.08 90 1004.0
20211206201016 56 219 3.0 13.0 0.00 0.08 0.08 95 1004.1
20211206200016 56 230 1.0 11.0 0.00 0.08 0.08 97 1004.1
20211206195016 55 205 2.0 11.0 0.00 0.08 0.08 98 1004.2
20211206194016 54 217 2.0 12.0 0.00 0.08 0.08 98 1004.4
20211206193017 53 224 0.0 5.0 0.00 0.08 0.08 98 1004.5
20211206192016 52 216 2.0 5.0 0.00 0.08 0.08 98 1004.7
20211206191016 50 184 1.0 6.0 0.00 0.08 0.08 98 1004.9
20211206190017 48 206 1.0 5.0 0.00 0.08 0.08 97 1005.0
20211206185016 47 278 0.0 2.0 0.00 0.08 0.08 97 1005.4
20211206184016 46 0.0 0.0 0.00 0.08 0.08 97 1005.9
20211206183016 46 0.0 0.0 0.00 0.08 0.08 97 1006.4
20211206182017 45 0.0 0.0 0.00 0.08 0.08 97 1006.8
20211206181016 45 0.0 0.0 0.00 0.08 0.08 97 1007.2
20211206180016 45 0.0 0.0 0.00 0.08 0.08 97 1007.5
20211206175016 45 0.0 0.0 0.00 0.08 0.08 97 1007.6
20211206174016 45 0.0 0.0 0.00 0.08 0.08 97 1007.8
20211206173016 44 0.0 0.0 0.00 0.08 0.08 97 1007.7
20211206172016 44 280 0.0 2.0 0.00 0.08 0.08 97 1007.8
20211206171016 44 0.0 0.0 0.00 0.08 0.08 97 1008.2
20211206170016 43 0.0 0.0 0.00 0.08 0.08 97 1008.5
20211206165016 43 0.0 0.0 0.00 0.08 0.08 96 1008.8
20211206164016 43 0.0 0.0 0.00 0.08 0.08 96 1008.8
20211206163016 43 0.0 0.0 0.00 0.08 0.08 97 1009.0
20211206162016 42 0.0 0.0 0.00 0.08 0.08 96 1009.4
20211206161016 42 0.0 0.0 0.00 0.08 0.08 96 1009.8
20211206160016 42 0.0 0.0 0.00 0.08 0.08 96 1010.4
20211206155016 42 0.0 0.0 0.00 0.08 0.08 96 1010.6
20211206154016 42 0.0 0.0 0.00 0.08 0.08 96 1011.1
20211206153017 41 0.0 0.0 0.00 0.08 0.08 96 1011.7
20211206152016 41 0.0 3.0 0.00 0.08 0.08 96 1011.9
20211206151016 41 278 0.0 2.0 0.00 0.08 0.08 96 1012.1
20211206150016 41 0.0 0.0 0.00 0.08 0.08 96 1012.2
20211206145016 41 0.0 0.0 0.00 0.08 0.08 96 1012.5
20211206144016 41 0.0 0.0 0.00 0.08 0.08 96 1013.0
20211206143016 41 0.0 0.0 0.00 0.08 0.08 96 1013.3
20211206142016 41 0.0 0.0 0.01 0.08 0.08 95 1013.3
20211206141016 41 0.0 0.0 0.01 0.08 0.08 95 1013.9
20211206140016 41 0.0 0.0 0.01 0.08 0.08 95 1014.5
20211206135016 41 0.0 0.0 0.01 0.08 0.08 95 1014.6
20211206134016 41 0.0 0.0 0.02 0.08 0.08 95 1014.4
20211206133016 41 0.0 0.0 0.02 0.08 0.08 95 1014.7
20211206132016 41 0.0 0.0 0.04 0.07 0.07 95 1014.9
20211206131016 41 0.0 0.0 0.05 0.07 0.07 95 1015.3
20211206130016 41 0.0 0.0 0.06 0.07 0.07 94 1015.7
20211206125016 41 0.0 0.0 0.06 0.07 0.07 94 1015.9
20211206124016 41 0.0 0.0 0.05 0.06 0.06 94 1016.1
20211206123016 41 0.0 0.0 0.05 0.06 0.06 94 1016.4
20211206122016 41 0.0 0.0 0.02 0.03 0.03 94 1016.7
20211206121017 41 0.0 0.0 0.01 0.02 0.02 93 1016.5
20211206120016 41 0.0 0.0 0.01 0.01 0.01 92 1017.0
20211206115016 41 0.0 0.0 0.01 0.01 0.01 92 1017.3
20211206114016 42 0.0 0.0 0.01 0.01 0.01 91 1017.6
20211206113016 42 0.0 0.0 0.01 0.01 0.01 90 1018.1
20211206112016 42 0.0 0.0 0.01 0.01 0.01 89 1018.3
20211206111016 43 0.0 0.0 0.01 0.01 0.01 87 1018.7
20211206110016 43 0.0 0.0 0.00 0.00 0.00 85 1019.2
20211206105016 43 0.0 0.0 0.00 0.00 0.00 83 1019.2
20211206104016 43 0.0 0.0 0.00 0.00 0.00 83 1019.3
20211206103016 43 301 0.0 3.0 0.00 0.00 0.00 82 1019.4
20211206102016 43 0.0 0.0 0.00 0.00 0.00 81 1019.7
20211206101016 42 0.0 0.0 0.00 0.00 0.00 83 1020.0
20211206100016 42 331 0.0 1.0 0.00 0.00 0.00 81 1019.8
20211206095016 42 0.0 0.0 0.00 0.00 0.00 81 1020.1
20211206094016 42 78 0.0 5.0 0.00 0.00 0.00 81 1020.4
20211206093018 42 0.0 0.0 0.00 0.00 0.00 80 1020.9
20211206092016 41 0.0 0.0 0.00 0.00 0.00 80 1020.7
20211206091016 41 119 0.0 3.0 0.00 0.00 0.00 80 1020.8